ilmateenistus.ee keskkonnaagentuur.ee
EETN Tallinna lennuväli
FTEO31 EETN 131700
TAF EETN 131705Z 1318/1418 24007KT 9999 BKN008 BKN020 PROB40 TEMPO
    1319/1324 1200 BR BKN003 TEMPO 1403/1409 1500 SHRA BR BKN003 SCT013CB
    BECMG 1409/1411 31007KT=

METAR EETN 132150Z 23006KT 9999 FEW008 BKN013 OVC023 07/06 Q1015 R08/290195 NOSIG=
Tallinna lennuväli
EEKA Kärdla lennuväli
METAR EEKA 132150Z NIL=
Kärdla lennuväli
EEKE Kuressaare lennuväli
FCEO32 EETN 131500 AAA
TAF AMD EEKE 131900Z 1316/1322 CNL=

METAR EEKE 132150Z AUTO 00000KT 9999NDV OVC008 07/06 Q1016=
Kuressaare lennuväli
EEPU Pärnu lennuväli
METAR EEPU 132150Z NIL=
Pärnu lennuväli
EETU Tartu lennuväli
FCEO32 EETN 132100
TAF EETU 132100Z 1322/1404 24006KT 6000 OVC006 TEMPO 1322/1404 1500
    DZ BR OVC003=

METAR EETU 132150Z 22005KT 3600 -DZ BR OVC005 06/06 Q1015=
Tartu lennuväli
EEEI Ämari lennuväli
METAR EEEI 132150Z 22006KT 9999 SCT014 OVC019 07/06 Q1015 R24/290095=
Ämari lennuväli